.
WxDataArchive / Data Records for 2011-07-05
2011-07-04 July 2011 2011-07-06

Data Records for Tuesday, 05 July 2011

Time	Temp	Chill	HIndex	Humid	Dewpt	 Wind 	HiWind	WindDir	Rain 	Barom 
-----	----	-----	------	-----	-----	------	------	-------	-----	----- 
00:00	70.8	70.8	70.8	59	55.7	0	0	---	0.00	29.953 
00:05	70.8	70.8	70.8	59	55.7	0	0	---	0.00	29.953 
00:10	70.6	70.6	70.6	60	56.0	0	0	---	0.00	29.953 
00:15	70.3	70.3	70.3	60	55.7	0	0	---	0.00	29.956 
00:20	70.3	70.3	70.3	61	56.2	0	0	---	0.00	29.956 
00:25	70.1	70.1	70.1	61	56.0	0	0	---	0.00	29.956 
00:30	69.9	69.9	69.9	61	55.8	0	0	---	0.00	29.959 
00:35	69.6	69.6	69.6	61	55.5	0	0	---	0.00	29.959 
00:40	69.4	69.4	69.4	62	55.8	0	0	---	0.00	29.959 
00:45	69.3	69.3	69.3	62	55.7	0	0	---	0.00	29.961 
00:50	69.3	69.3	69.3	62	55.7	0	1	292	0.00	29.961 
00:55	69.3	69.3	69.3	62	55.7	0	0	---	0.00	29.961 
01:00	69.3	69.3	69.3	62	55.7	0	1	292	0.00	29.961 
01:05	69.3	69.3	69.3	62	55.7	0	1	292	0.00	29.961 
01:10	69.1	69.1	69.1	62	55.5	0	1	292	0.00	29.961 
01:15	68.9	68.9	68.9	62	55.3	0	0	---	0.00	29.959 
01:20	68.9	68.9	68.9	62	55.3	0	0	---	0.00	29.959 
01:25	68.6	68.6	68.6	63	55.5	0	0	---	0.00	29.959 
01:30	68.4	68.4	68.4	63	55.3	0	0	---	0.00	29.956 
01:35	68.1	68.1	68.1	64	55.5	0	0	---	0.00	29.956 
01:40	67.8	67.8	67.8	64	55.2	0	0	---	0.00	29.956 
01:45	67.6	67.6	67.6	64	55.0	0	0	---	0.00	29.956 
01:50	67.4	67.4	67.4	65	55.2	0	0	---	0.00	29.956 
01:55	67.1	67.1	67.1	65	54.9	0	0	---	0.00	29.956 
02:00	66.9	66.9	66.9	66	55.2	0	0	---	0.00	29.960 
02:05	66.9	66.9	66.9	66	55.2	0	0	---	0.00	29.960 
02:10	66.9	66.9	66.9	66	55.2	0	0	---	0.00	29.960 
02:15	66.8	66.8	66.8	66	55.1	0	0	---	0.00	29.955 
02:20	66.8	66.8	66.8	66	55.1	0	0	---	0.00	29.955 
02:25	66.6	66.6	66.6	66	54.9	0	0	---	0.00	29.955 
02:30	66.6	66.6	66.6	67	55.3	0	0	---	0.00	29.958 
02:35	66.4	66.4	66.4	67	55.1	0	0	---	0.00	29.958 
02:40	66.4	66.4	66.4	67	55.1	0	0	---	0.00	29.958 
02:45	66.4	66.4	66.4	67	55.1	0	0	---	0.00	29.964 
02:50	66.3	66.3	66.3	67	55.0	0	0	---	0.00	29.964 
02:55	66.1	66.1	66.1	67	54.8	0	0	---	0.00	29.964 
03:00	66.0	66.0	66.0	68	55.1	0	0	---	0.00	29.964 
03:05	65.6	65.6	65.6	69	55.1	0	0	---	0.00	29.964 
03:10	65.5	65.5	65.5	70	55.4	0	0	---	0.00	29.964 
03:15	65.2	65.2	65.2	70	55.2	0	0	---	0.00	29.966 
03:20	65.0	65.0	65.0	70	55.0	0	0	---	0.00	29.966 
03:25	64.7	64.7	64.7	71	55.1	0	0	---	0.00	29.966 
03:30	64.5	64.5	64.5	71	54.9	0	0	---	0.00	29.965 
03:35	64.2	64.2	64.2	72	55.0	0	0	---	0.00	29.965 
03:40	63.9	63.9	63.9	73	55.1	0	0	---	0.00	29.965 
03:45	63.7	63.7	63.7	74	55.3	0	0	---	0.00	29.962 
03:50	63.5	63.5	63.5	75	55.4	0	0	---	0.00	29.962 
03:55	63.2	63.2	63.2	75	55.1	0	0	---	0.00	29.962 
04:00	63.1	63.1	63.1	76	55.4	0	0	---	0.00	29.966 
04:05	62.9	62.9	62.9	77	55.6	0	0	---	0.00	29.966 
04:10	62.7	62.7	62.7	78	55.7	0	0	---	0.00	29.966 
04:15	62.6	62.6	62.6	78	55.6	0	0	---	0.00	29.963 
04:20	62.4	62.4	62.4	78	55.4	0	0	---	0.00	29.963 
04:25	62.3	62.3	62.3	79	55.7	0	0	---	0.00	29.963 
04:30	62.3	62.3	62.3	80	56.0	0	0	---	0.00	29.965 
04:35	62.3	62.3	62.3	80	56.0	0	0	---	0.00	29.965 
04:40	62.1	62.1	62.1	80	55.9	0	0	---	0.00	29.965 
04:45	62.1	62.1	62.1	80	55.9	0	0	---	0.00	29.965 
04:50	62.1	62.1	62.1	81	56.2	0	0	---	0.00	29.965 
04:55	62.1	62.1	62.1	81	56.2	0	0	---	0.00	29.965 
05:00	62.1	62.1	62.1	81	56.2	0	0	---	0.00	29.965 
05:05	62.1	62.1	62.1	81	56.2	0	0	---	0.00	29.965 
05:10	62.1	62.1	62.1	81	56.2	0	0	---	0.00	29.965 
05:15	62.0	62.0	62.0	81	56.1	0	0	---	0.00	29.966 
05:20	61.8	61.8	61.8	81	55.9	0	0	---	0.00	29.966 
05:25	61.8	61.8	61.8	81	55.9	0	0	---	0.00	29.966 
05:30	61.6	61.6	61.6	82	56.0	0	0	---	0.00	29.969 
05:35	61.5	61.5	61.5	82	55.9	0	0	---	0.00	29.969 
05:40	61.3	61.3	61.3	82	55.8	0	0	---	0.00	29.969 
05:45	61.2	61.2	61.2	83	56.0	0	0	---	0.00	29.977 
05:50	61.0	61.0	61.0	83	55.8	0	0	---	0.00	29.977 
05:55	60.9	60.9	60.9	84	56.0	0	0	---	0.00	29.977 
06:00	60.7	60.7	60.7	84	55.8	0	0	---	0.00	29.982 
06:05	60.7	60.7	60.7	84	55.8	0	0	---	0.00	29.982 
06:10	60.5	60.5	60.5	85	56.0	0	0	---	0.00	29.982 
06:15	60.4	60.4	60.4	85	55.9	0	0	---	0.00	29.983 
06:20	60.4	60.4	60.4	85	55.9	0	0	---	0.00	29.983 
06:25	60.4	60.4	60.4	86	56.2	0	0	---	0.00	29.983 
06:30	60.2	60.2	60.2	86	56.0	0	0	---	0.00	29.996 
06:35	60.2	60.2	60.2	86	56.0	0	0	---	0.00	29.996 
06:40	60.2	60.2	60.2	86	56.0	0	0	---	0.00	29.996 
06:45	60.2	60.2	60.2	87	56.3	0	0	---	0.00	29.997 
06:50	60.4	60.4	60.4	87	56.5	0	0	---	0.00	29.997 
06:55	60.4	60.4	60.4	87	56.5	0	0	---	0.00	29.997 
07:00	60.5	60.5	60.5	87	56.6	0	0	---	0.00	29.993 
07:05	60.7	60.7	60.7	87	56.8	0	0	---	0.00	29.993 
07:10	61.0	61.0	61.0	87	57.1	0	0	---	0.00	29.993 
07:15	61.2	61.2	61.2	88	57.6	0	0	---	0.00	29.997 
07:20	61.6	61.6	61.6	87	57.7	0	0	---	0.00	29.997 
07:25	62.1	62.1	62.1	87	58.2	0	0	---	0.00	29.997 
07:30	62.6	62.6	62.6	87	58.7	0	0	---	0.00	30.000 
07:35	63.2	63.2	63.2	86	58.9	0	0	---	0.00	30.000 
07:40	64.3	64.3	64.3	83	59.0	0	0	---	0.00	30.000 
07:45	65.8	65.8	65.8	79	59.1	0	1	292	0.00	29.993 
07:50	67.1	67.1	67.1	75	58.9	0	2	292	0.00	29.993 
07:55	68.3	68.3	68.3	72	58.9	0	2	292	0.00	29.993 
08:00	69.1	69.1	69.1	71	59.3	0	1	292	0.00	29.996 
08:05	70.1	70.1	70.1	69	59.4	0	1	292	0.00	29.996 
08:10	70.9	70.9	70.9	68	59.8	0	1	292	0.00	29.996 
08:15	72.0	72.0	72.0	66	60.0	0	0	---	0.00	29.991 
08:20	72.8	72.8	72.8	65	60.3	0	2	292	0.00	29.991 
08:25	73.3	73.3	73.3	63	59.9	0	3	292	0.00	29.991 
08:30	73.5	73.5	73.5	62	59.7	1	3	68	0.00	29.984 
08:35	73.7	73.7	73.7	63	60.3	0	2	68	0.00	29.984 
08:40	74.2	74.2	74.2	62	60.3	0	1	68	0.00	29.984 
08:45	74.9	74.9	74.9	61	60.5	0	1	68	0.00	29.992 
08:50	75.8	75.8	77.9	58	59.9	0	1	68	0.00	29.992 
08:55	76.5	76.5	78.4	58	60.6	0	2	68	0.00	29.992 
09:00	77.0	77.0	78.7	57	60.6	0	1	68	0.00	29.992 
09:05	77.7	77.7	79.3	57	61.2	0	0	---	0.00	29.992 
09:10	78.3	78.3	79.8	56	61.3	0	1	68	0.00	29.992 
09:15	78.5	78.5	79.9	55	61.0	0	2	68	0.00	29.991 
09:20	78.6	78.6	80.1	57	62.1	0	0	---	0.00	29.991 
09:25	79.0	79.0	80.3	55	61.4	0	0	---	0.00	29.991 
09:30	79.2	79.2	80.6	56	62.1	0	0	---	0.00	29.992 
09:35	79.6	79.6	80.9	55	62.0	0	0	---	0.00	29.992 
09:40	79.9	79.9	81.3	56	62.8	0	0	---	0.00	29.992 
09:45	80.7	80.7	81.8	53	62.0	0	0	---	0.00	29.986 
09:50	81.4	81.4	82.4	52	62.1	0	0	---	0.00	29.986 
09:55	81.8	81.8	82.8	52	62.4	0	0	---	0.00	29.986 
10:00	81.8	81.8	82.7	51	61.9	0	1	68	0.00	29.984 
10:05	81.4	81.4	82.4	52	62.1	0	0	---	0.00	29.984 
10:10	82.0	82.0	82.9	51	62.1	0	0	---	0.00	29.984 
10:15	82.4	82.4	83.4	51	62.4	0	0	---	0.00	29.987 
10:20	83.0	83.0	83.7	49	61.8	0	1	68	0.00	29.987 
10:25	83.4	83.4	84.6	51	63.3	0	2	68	0.00	29.987 
10:30	83.8	83.8	84.7	49	62.6	1	3	68	0.00	29.982 
10:35	84.0	84.0	84.7	48	62.2	0	1	68	0.00	29.982 
10:40	83.6	83.6	83.9	46	60.6	0	2	68	0.00	29.982 
10:45	83.0	83.0	83.5	48	61.3	1	3	315	0.00	29.990 
10:50	82.8	82.8	83.5	49	61.7	0	1	315	0.00	29.990 
10:55	82.8	82.8	83.2	47	60.5	1	3	315	0.00	29.990 
11:00	82.6	82.6	83.3	49	61.5	0	1	315	0.00	29.996 
11:05	83.0	83.0	83.2	46	60.1	0	2	315	0.00	29.996 
11:10	84.0	84.0	84.3	46	61.0	0	1	315	0.00	29.996 
11:15	84.9	84.9	84.6	42	59.2	1	3	0	0.00	29.991 
11:20	85.3	85.3	85.0	42	59.6	0	3	270	0.00	29.991 
11:25	85.7	85.7	85.1	40	58.6	0	2	270	0.00	29.991 
11:30	85.7	85.7	85.7	43	60.6	0	2	270	0.00	29.988 
11:35	85.5	85.5	84.2	36	55.5	1	2	292	0.00	29.988 
11:40	85.1	85.1	84.1	38	56.6	1	3	292	0.00	29.988 
11:45	85.5	85.5	84.7	39	57.7	1	4	45	0.00	29.986 
11:50	85.7	85.7	85.5	42	59.9	0	1	45	0.00	29.986 
11:55	85.7	85.7	84.9	39	57.9	2	4	68	0.00	29.986 
12:00	85.7	85.7	85.1	40	58.6	0	1	68	0.00	29.981 
12:05	85.9	85.9	85.1	39	58.0	1	2	45	0.00	29.981 
12:10	86.1	86.1	85.0	37	56.7	0	2	45	0.00	29.981 
12:15	86.3	86.3	85.4	38	57.7	1	3	292	0.00	29.982 
12:20	86.1	86.1	84.8	36	56.0	1	4	292	0.00	29.982 
12:25	86.1	86.1	85.4	39	58.2	0	2	292	0.00	29.982 
12:30	86.1	86.1	85.2	38	57.5	1	3	292	0.00	29.986 
12:35	86.1	86.1	85.4	39	58.2	0	0	---	0.00	29.986 
12:40	86.3	86.3	85.2	37	56.9	0	3	292	0.00	29.986 
12:45	86.1	86.1	84.6	35	55.2	0	2	292	0.00	29.991 
12:50	86.3	86.3	84.8	35	55.4	0	2	292	0.00	29.991 
12:55	87.0	87.0	85.8	36	56.8	1	3	292	0.00	29.991 
13:00	87.6	87.6	86.4	36	57.3	0	2	292	0.00	29.979 
13:05	88.2	88.2	86.9	35	57.0	1	2	45	0.00	29.979 
13:10	87.8	87.8	86.5	35	56.7	1	4	45	0.00	29.979 
13:15	87.0	87.0	85.4	34	55.2	1	3	22	0.00	29.977 
13:20	86.7	86.7	85.2	35	55.7	1	3	0	0.00	29.977 
13:25	87.4	87.4	86.0	35	56.3	0	2	0	0.00	29.977 
13:30	87.4	87.4	86.0	35	56.3	0	2	0	0.00	29.976 
13:35	88.0	88.0	87.4	38	59.2	0	1	0	0.00	29.976 
13:40	88.6	88.6	87.4	35	57.4	0	3	0	0.00	29.976 
13:45	89.0	89.0	87.2	32	55.3	1	4	112	0.00	29.973 
13:50	88.4	88.4	86.5	32	54.7	2	4	112	0.00	29.973 
13:55	88.4	88.4	86.7	33	55.6	2	6	90	0.00	29.973 
14:00	88.2	88.2	86.7	34	56.2	2	7	90	0.00	29.966 
14:05	88.4	88.4	86.9	34	56.4	2	5	90	0.00	29.966 
14:10	88.6	88.6	87.6	36	58.2	1	5	90	0.00	29.966 
14:15	88.8	88.8	86.8	31	54.2	1	3	90	0.00	29.962 
14:20	88.8	88.8	86.8	31	54.2	2	5	90	0.00	29.962 
14:25	89.0	89.0	87.2	32	55.3	1	5	90	0.00	29.962 
14:30	89.0	89.0	87.0	31	54.4	1	3	90	0.00	29.951 
14:35	89.3	89.3	87.1	30	53.8	1	3	292	0.00	29.951 
14:40	89.3	89.3	87.3	31	54.7	1	5	270	0.00	29.951 
14:45	89.5	89.5	87.2	29	53.0	0	2	112	0.00	29.952 
14:50	89.9	89.9	88.0	31	55.2	1	3	112	0.00	29.952 
14:55	89.9	89.9	88.0	31	55.2	1	2	112	0.00	29.952 
15:00	89.5	89.5	87.8	32	55.7	0	1	112	0.00	29.951 
15:05	89.3	89.3	87.1	30	53.8	0	2	112	0.00	29.951 
15:10	89.7	89.7	88.3	33	56.7	0	2	112	0.00	29.951 
15:15	90.3	90.3	89.0	33	57.2	1	2	112	0.00	29.952 
15:20	90.7	90.7	89.2	32	56.7	1	3	112	0.00	29.952 
15:25	90.7	90.7	88.7	30	55.0	1	3	112	0.00	29.952 
15:30	90.7	90.7	88.7	30	55.0	2	4	112	0.00	29.951 
15:35	91.0	91.0	89.1	30	55.2	1	6	135	0.00	29.951 
15:40	90.5	90.5	88.7	31	55.7	1	4	90	0.00	29.951 
15:45	90.5	90.5	88.3	29	53.9	1	3	90	0.00	29.952 
15:50	90.5	90.5	88.1	28	52.9	1	3	90	0.00	29.952 
15:55	90.5	90.5	88.5	30	54.8	1	3	90	0.00	29.952 
16:00	90.7	90.7	88.3	28	53.1	2	4	68	0.00	29.950 
16:05	90.7	90.7	88.7	30	55.0	1	2	90	0.00	29.950 
16:10	90.7	90.7	88.7	30	55.0	1	3	90	0.00	29.950 
16:15	91.0	91.0	88.9	29	54.3	1	3	112	0.00	29.947 
16:20	91.0	91.0	88.9	29	54.3	1	3	112	0.00	29.947 
16:25	90.7	90.7	88.5	29	54.0	2	3	90	0.00	29.947 
16:30	90.5	90.5	88.5	30	54.8	1	3	90	0.00	29.946 
16:35	90.7	90.7	88.7	30	55.0	1	3	90	0.00	29.946 
16:40	91.0	91.0	89.1	30	55.2	0	2	90	0.00	29.946 
16:45	91.2	91.2	89.1	29	54.5	0	2	90	0.00	29.945 
16:50	91.0	91.0	89.1	30	55.2	1	2	90	0.00	29.945 
16:55	91.4	91.4	89.6	30	55.6	0	3	90	0.00	29.945 
17:00	91.2	91.2	88.9	28	53.5	1	2	90	0.00	29.937 
17:05	91.2	91.2	89.1	29	54.5	0	3	90	0.00	29.937 
17:10	91.0	91.0	88.9	29	54.3	1	3	90	0.00	29.937 
17:15	90.7	90.7	88.5	29	54.0	0	2	90	0.00	29.932 
17:20	90.7	90.7	88.3	28	53.1	1	3	90	0.00	29.932 
17:25	90.7	90.7	88.7	30	55.0	1	4	90	0.00	29.932 
17:30	91.0	91.0	89.4	31	56.1	0	2	90	0.00	29.929 
17:35	91.4	91.4	89.1	28	53.7	0	3	90	0.00	29.929 
17:40	91.2	91.2	88.9	28	53.5	0	2	90	0.00	29.929 
17:45	91.2	91.2	89.6	31	56.3	0	1	90	0.00	29.929 
17:50	91.2	91.2	89.4	30	55.4	0	2	90	0.00	29.929 
17:55	91.2	91.2	90.2	33	58.0	0	1	90	0.00	29.929 
18:00	91.0	91.0	89.4	31	56.1	0	1	90	0.00	29.924 
18:05	90.5	90.5	88.5	30	54.8	0	1	90	0.00	29.924 
18:10	90.3	90.3	88.5	31	55.5	0	1	90	0.00	29.924 
18:15	90.1	90.1	89.0	34	57.9	0	2	90	0.00	29.921 
18:20	89.9	89.9	88.3	32	56.0	1	3	90	0.00	29.921 
18:25	89.9	89.9	88.3	32	56.0	0	2	90	0.00	29.921 
18:30	89.7	89.7	88.0	32	55.9	0	2	90	0.00	29.918 
18:35	89.7	89.7	88.0	32	55.9	0	1	90	0.00	29.918 
18:40	89.5	89.5	88.0	33	56.6	0	1	90	0.00	29.918 
18:45	89.0	89.0	87.4	33	56.1	0	2	90	0.00	29.917 
18:50	88.6	88.6	87.2	34	56.6	0	1	90	0.00	29.917 
18:55	88.6	88.6	87.0	33	55.8	0	1	90	0.00	29.917 
19:00	88.4	88.4	86.9	34	56.4	0	0	---	0.00	29.917 
19:05	88.4	88.4	86.9	34	56.4	0	1	90	0.00	29.917 
19:10	88.6	88.6	87.4	35	57.4	0	2	90	0.00	29.917 
19:15	88.6	88.6	87.0	33	55.8	1	3	90	0.00	29.910 
19:20	88.6	88.6	87.4	35	57.4	0	1	90	0.00	29.910 
19:25	88.6	88.6	87.0	33	55.8	1	2	90	0.00	29.910 
19:30	88.6	88.6	87.2	34	56.6	1	4	270	0.00	29.910 
19:35	88.4	88.4	86.7	33	55.6	0	2	270	0.00	29.910 
19:40	88.2	88.2	86.5	33	55.4	0	1	270	0.00	29.910 
19:45	88.0	88.0	86.3	33	55.2	0	2	270	0.00	29.912 
19:50	88.0	88.0	86.3	33	55.2	1	3	270	0.00	29.912 
19:55	87.8	87.8	86.1	33	55.1	0	1	270	0.00	29.912 
20:00	87.8	87.8	86.3	34	55.9	0	1	270	0.00	29.911 
20:05	87.6	87.6	86.0	34	55.7	0	2	270	0.00	29.911 
20:10	87.4	87.4	85.8	34	55.5	0	1	270	0.00	29.911 
20:15	87.2	87.2	85.8	35	56.2	0	1	270	0.00	29.909 
20:20	87.2	87.2	85.6	34	55.4	0	1	270	0.00	29.909 
20:25	87.0	87.0	85.6	35	56.0	0	1	270	0.00	29.909 
20:30	86.7	86.7	85.2	35	55.7	0	3	270	0.00	29.912 
20:35	86.3	86.3	85.4	38	57.7	1	2	338	0.00	29.912 
20:40	85.7	85.7	85.1	40	58.6	0	1	338	0.00	29.912 
20:45	85.3	85.3	85.0	42	59.6	0	2	338	0.00	29.916 
20:50	84.9	84.9	84.8	43	59.9	0	1	338	0.00	29.916 
20:55	84.3	84.3	84.5	45	60.6	0	1	338	0.00	29.916 
21:00	84.0	84.0	84.3	46	61.0	1	4	338	0.00	29.922 
21:05	83.6	83.6	83.9	46	60.6	1	3	270	0.00	29.922 
21:10	83.2	83.2	83.4	46	60.2	1	4	292	0.00	29.922 
21:15	82.8	82.8	83.2	47	60.5	0	1	292	0.00	29.914 
21:20	82.6	82.6	83.0	47	60.3	0	1	292	0.00	29.914 
21:25	82.2	82.2	82.7	48	60.5	0	2	292	0.00	29.914 
21:30	82.0	82.0	82.5	48	60.3	0	1	292	0.00	29.914 
21:35	81.6	81.6	82.2	49	60.6	0	1	292	0.00	29.914 
21:40	81.4	81.4	82.1	50	60.9	0	1	292	0.00	29.914 
21:45	81.2	81.2	81.9	50	60.8	0	0	---	0.00	29.919 
21:50	80.9	80.9	81.8	51	61.0	0	0	---	0.00	29.919 
21:55	80.5	80.5	81.5	52	61.2	0	0	---	0.00	29.919 
22:00	80.1	80.1	81.1	52	60.9	0	0	---	0.00	29.921 
22:05	79.8	79.8	80.9	53	61.1	0	0	---	0.00	29.921 
22:10	79.2	79.2	80.4	54	61.1	0	0	---	0.00	29.921 
22:15	78.8	78.8	80.1	54	60.7	0	0	---	0.00	29.921 
22:20	78.5	78.5	79.9	55	61.0	0	0	---	0.00	29.921 
22:25	78.3	78.3	79.8	56	61.3	0	0	---	0.00	29.921 
22:30	77.9	77.9	79.5	57	61.4	0	0	---	0.00	29.929 
22:35	77.6	77.6	79.2	57	61.1	0	0	---	0.00	29.929 
22:40	77.2	77.2	78.9	59	61.7	0	0	---	0.00	29.929 
22:45	76.8	76.8	78.6	59	61.4	0	0	---	0.00	29.925 
22:50	76.5	76.5	78.4	59	61.1	0	0	---	0.00	29.925 
22:55	76.3	76.3	78.2	60	61.4	0	0	---	0.00	29.925 
23:00	76.0	76.0	78.0	61	61.6	0	0	---	0.00	29.925 
23:05	75.6	75.6	77.7	62	61.6	0	0	---	0.00	29.925 
23:10	75.3	75.3	77.4	63	61.8	0	0	---	0.00	29.925 
23:15	75.1	75.1	77.2	64	62.1	0	0	---	0.00	29.925 
23:20	74.7	74.7	74.7	64	61.7	0	0	---	0.00	29.925 
23:25	74.4	74.4	74.4	65	61.8	0	0	---	0.00	29.925 
23:30	74.0	74.0	74.0	66	61.9	0	0	---	0.00	29.929 
23:35	73.9	73.9	73.9	67	62.2	0	0	---	0.00	29.929 
23:40	73.7	73.7	73.7	67	62.0	0	0	---	0.00	29.929 
23:45	73.5	73.5	73.5	68	62.3	0	0	---	0.00	29.932 
23:50	73.2	73.2	73.2	68	62.0	0	0	---	0.00	29.932 
23:55	73.0	73.0	73.0	69	62.2	0	0	---	0.00	29.932 

CoCoRaHS
IN-AL-39
A2 Web Hosting
Creative Commons License
GoDaddy
search engine by freefind advanced

loaded 2018-11-13 21:59:00 • last modified 2010-11-18 10:43:29
Privacy PolicyDisclaimer
• wx.awcolley.com is powered by PmWiki v.2002016 •
• all content (unless otherwise noted) © 2018 A W Colley